Terminal Aerodrome Forecast
Issued by NWS Bismarck, ND

Home | Current Version | Previous Version | Text Only | Print | Product List | Glossary Off
Versions: 1 2 3 4 5 6 7 8 9 10 11 12 13 14 15 16 17 18 19 20 21 22 23 24 25 26 27 28 29 30

000
FTUS43 KBIS 221250 AAB
TAFBIS
TAF AMD
KBIS 221250Z 2213/2312 27008KT P6SM OVC009
      TEMPO 2213/2215 5SM BR OVC007
     FM221700 28007KT P6SM BKN015 OVC025
     FM222200 28007KT P6SM OVC015
     FM230700 26004KT 5SM BR OVC010=

USA.gov is the U.S. government's official web portal to all federal, state and local government web resources and services.